Strathroy, Canada
Current Conditions -  °F | °C
As of 9:29 AM on Saturday 22 Nov 2014 (Local Time) from CYXU Reporting Station
Light Snow Light Snow  
Wind Chill: 23°   Ceiling: 1500
Heat Index: 34°   Visibility: 4mi
Dew Point: 30°   Wind: 17mph
Humidity: 87%   Direction: 200°SSW
Pressure: 30.1"   Gusts: NA
Location:  42.96°N, 81.62°W
Report Text: CYXU 221429Z 20015KT 4SM -RASN BR OVC015 01/M01 A3010 RMK NS8 SLP206
Loading
Personal Weather Stations






























Interactive Weather Map New forecast layout! Learn more

10-Day Weather Forecast

Advertisements
Track Severe Weather on mobile